Time;durP1;ratioP1;P1;durP2;ratioP2;P2;SDS_P1;SDS_P2;PMS_P1;PMS_P2;Temp;Humidity;BMP_temperature;BMP_pressure;BME280_temperature;BME280_humidity;BME280_pressure;Samples;Min_cycle;Max_cycle;Signal;HPM_P1;HPM_P2
2021/12/05 00:17:35;;;;;;;1.20;0.43;;;5.30;1.00;;;;;;5153816;27;20805;-68
2021/12/05 00:22:48;;;;;;;4.77;1.07;;;5.20;1.00;;;;;;5132787;27;20443;-67
2021/12/05 00:25:22;;;;;;;0.50;0.17;;;5.20;1.00;;;;;;5153509;27;20537;-67
2021/12/05 00:28:02;;;;;;;0.50;0.10;;;5.20;1.00;;;;;;5153685;27;20933;-67
2021/12/05 00:30:54;;;;;;;0.50;0.10;;;5.30;1.00;;;;;;5153929;27;20428;-67
2021/12/05 00:33:42;;;;;;;0.50;0.10;;;5.40;1.00;;;;;;5153492;27;20460;-67
2021/12/05 00:39:33;;;;;;;0.50;0.10;;;5.50;1.00;;;;;;5152910;27;20596;-67
2021/12/05 00:45:30;;;;;;;0.50;0.10;;;5.70;1.00;;;;;;5153480;27;20464;-67
2021/12/05 00:48:17;;;;;;;0.50;0.10;;;5.70;1.00;;;;;;5153353;27;20435;-67
2021/12/05 00:51:09;;;;;;;0.50;0.10;;;5.80;1.00;;;;;;5153716;27;20782;-68
2021/12/05 00:56:39;;;;;;;0.50;0.10;;;5.70;1.00;;;;;;5153567;27;20450;-68
2021/12/05 00:59:31;;;;;;;0.50;0.10;;;5.70;1.00;;;;;;5154111;27;20473;-68
2021/12/05 01:05:16;;;;;;;0.50;0.10;;;5.80;1.00;;;;;;5139917;27;20475;-67
2021/12/05 01:08:12;;;;;;;0.50;0.10;;;5.80;1.00;;;;;;5154465;27;20507;-67
2021/12/05 01:11:15;;;;;;;0.50;0.10;;;5.80;1.00;;;;;;5154017;27;20819;-66
2021/12/05 01:13:58;;;;;;;0.50;0.10;;;5.80;1.00;;;;;;5154572;27;20538;-67
2021/12/05 01:16:29;;;;;;;0.50;0.10;;;5.80;1.00;;;;;;5154132;27;20442;-67
2021/12/05 01:18:57;;;;;;;0.50;0.10;;;5.80;1.00;;;;;;5153487;27;20507;-67
2021/12/05 01:21:27;;;;;;;0.50;0.10;;;5.80;1.00;;;;;;5153168;27;20443;-67
2021/12/05 01:24:01;;;;;;;1.13;1.03;;;5.70;1.00;;;;;;5155590;27;20462;-67
2021/12/05 01:26:35;;;;;;;0.50;0.10;;;5.70;1.00;;;;;;5160220;27;20436;-68
2021/12/05 01:31:58;;;;;;;0.50;0.20;;;5.60;1.00;;;;;;5155270;27;20452;-67
2021/12/05 01:34:46;;;;;;;0.50;0.10;;;5.50;1.00;;;;;;5158751;27;20459;-68
2021/12/05 01:37:28;;;;;;;0.50;0.10;;;5.50;1.00;;;;;;5158065;27;20454;-67
2021/12/05 01:40:11;;;;;;;0.50;0.10;;;5.40;1.00;;;;;;5157596;27;20474;-67
2021/12/05 01:43:26;;;;;;;0.50;0.10;;;5.30;1.00;;;;;;5157945;27;20451;-67
2021/12/05 01:46:20;;;;;;;0.67;0.67;;;5.30;1.00;;;;;;5156744;27;20442;-67
2021/12/05 02:02:52;;;;;;;0.50;0.10;;;5.10;1.00;;;;;;5111337;27;20474;-67
2021/12/05 02:30:39;;;;;;;0.70;0.30;;;5.10;1.00;;;;;;5157054;27;20435;-68
2021/12/05 02:36:22;;;;;;;0.70;0.40;;;5.20;1.00;;;;;;5156271;27;20444;-69
2021/12/05 02:41:38;;;;;;;1.47;0.97;;;5.10;1.00;;;;;;5148367;27;20446;-69
2021/12/05 02:44:13;;;;;;;0.50;0.10;;;5.20;1.00;;;;;;5155342;27;20454;-69
2021/12/05 02:46:44;;;;;;;0.60;0.30;;;5.20;1.00;;;;;;5155267;27;20441;-69
2021/12/05 02:49:14;;;;;;;0.50;0.10;;;5.20;1.00;;;;;;5156257;27;20809;-69
2021/12/05 02:51:51;;;;;;;0.50;0.30;;;5.20;1.00;;;;;;5155446;27;20444;-70
2021/12/05 02:54:22;;;;;;;0.50;0.10;;;5.30;1.00;;;;;;5155135;27;20457;-69
2021/12/05 02:56:51;;;;;;;0.50;0.10;;;5.30;1.00;;;;;;5155684;27;20443;-69
2021/12/05 02:59:25;;;;;;;0.50;0.10;;;5.30;1.00;;;;;;5154782;27;20478;-68
2021/12/05 03:01:59;;;;;;;1.33;1.03;;;5.40;1.00;;;;;;5154967;27;20453;-68
2021/12/05 03:04:31;;;;;;;0.50;0.10;;;5.40;1.00;;;;;;5155092;27;20456;-69
2021/12/05 03:07:03;;;;;;;0.50;0.10;;;5.40;1.00;;;;;;5154732;27;20794;-68
2021/12/05 03:09:33;;;;;;;0.50;0.10;;;5.40;1.00;;;;;;5154574;27;20430;-68
2021/12/05 03:12:04;;;;;;;0.50;0.10;;;5.40;1.00;;;;;;5154908;27;20451;-68
2021/12/05 03:14:32;;;;;;;0.50;0.10;;;5.40;1.00;;;;;;5154697;27;20966;-68
2021/12/05 03:17:00;;;;;;;0.50;0.10;;;5.40;1.00;;;;;;5154932;27;20546;-68
2021/12/05 03:19:28;;;;;;;0.50;0.10;;;5.40;1.00;;;;;;5154571;27;20845;-68
2021/12/05 03:21:56;;;;;;;0.50;0.10;;;5.40;1.00;;;;;;5152385;27;20932;-68
2021/12/05 03:24:25;;;;;;;0.50;0.10;;;5.50;1.00;;;;;;5154277;27;20972;-68
2021/12/05 03:26:55;;;;;;;0.50;0.10;;;5.40;1.00;;;;;;5154687;27;20443;-68
2021/12/05 03:29:23;;;;;;;0.50;0.10;;;5.40;1.00;;;;;;5154188;27;20931;-69
2021/12/05 03:31:53;;;;;;;0.50;0.20;;;5.40;1.00;;;;;;5154330;27;20827;-68
2021/12/05 03:34:22;;;;;;;0.50;0.10;;;5.40;1.00;;;;;;5154298;27;20874;-68
2021/12/05 03:36:53;;;;;;;0.50;0.10;;;5.40;1.00;;;;;;5154415;27;20878;-68
2021/12/05 03:39:22;;;;;;;0.50;0.10;;;5.30;1.00;;;;;;5154193;27;20474;-68
2021/12/05 03:41:53;;;;;;;0.50;0.10;;;5.30;1.00;;;;;;5154419;27;20449;-69
2021/12/05 03:44:26;;;;;;;0.50;0.30;;;5.40;1.00;;;;;;5153965;27;20447;-68
2021/12/05 03:46:56;;;;;;;0.50;0.10;;;5.30;1.00;;;;;;5154177;27;20435;-68
2021/12/05 03:49:25;;;;;;;0.50;0.20;;;5.30;1.00;;;;;;5154513;27;20425;-69
2021/12/05 03:51:56;;;;;;;0.50;0.10;;;5.30;1.00;;;;;;5154389;27;20433;-68
2021/12/05 03:54:25;;;;;;;0.50;0.10;;;5.20;1.00;;;;;;5153744;27;20479;-68
2021/12/05 03:56:53;;;;;;;0.50;0.10;;;5.20;1.00;;;;;;5154193;27;20438;-67
2021/12/05 03:59:22;;;;;;;0.50;0.10;;;5.10;1.00;;;;;;5153764;27;20526;-68
2021/12/05 04:01:51;;;;;;;0.50;0.10;;;5.10;1.00;;;;;;5153841;27;20523;-69
2021/12/05 04:04:19;;;;;;;0.50;0.20;;;5.00;1.00;;;;;;5153719;27;21000;-68
2021/12/05 04:06:47;;;;;;;0.50;0.10;;;5.00;1.00;;;;;;5154069;27;20444;-68
2021/12/05 04:09:17;;;;;;;0.50;0.10;;;5.00;1.00;;;;;;5153624;27;20439;-68
2021/12/05 04:11:56;;;;;;;0.50;0.10;;;5.00;1.00;;;;;;5153857;27;20456;-68
2021/12/05 04:14:27;;;;;;;0.50;0.20;;;5.10;1.00;;;;;;5153462;27;20462;-68
2021/12/05 04:16:56;;;;;;;0.50;0.10;;;5.10;1.00;;;;;;5153866;27;20899;-68
2021/12/05 04:19:25;;;;;;;0.50;0.10;;;5.10;1.00;;;;;;5153325;27;20921;-68
2021/12/05 04:21:53;;;;;;;0.50;0.10;;;5.10;1.00;;;;;;5153705;27;20471;-68
2021/12/05 04:24:22;;;;;;;0.50;0.10;;;5.10;1.00;;;;;;5153347;27;20457;-68
2021/12/05 04:26:50;;;;;;;0.50;0.10;;;5.10;1.00;;;;;;5153497;27;20439;-68
2021/12/05 04:29:19;;;;;;;0.50;0.20;;;5.10;1.00;;;;;;5153341;27;21028;-68
2021/12/05 04:31:47;;;;;;;0.50;0.10;;;5.00;1.00;;;;;;5153646;27;20466;-68
2021/12/05 04:34:17;;;;;;;0.50;0.10;;;5.00;1.00;;;;;;5153339;27;20870;-69
2021/12/05 04:36:46;;;;;;;0.60;0.30;;;5.00;1.00;;;;;;5153324;27;20450;-68
2021/12/05 04:39:14;;;;;;;0.60;0.57;;;5.00;1.00;;;;;;5153151;27;20441;-68
2021/12/05 04:41:44;;;;;;;0.50;0.10;;;5.00;1.00;;;;;;5153564;27;20528;-68
2021/12/05 04:44:12;;;;;;;0.50;0.10;;;5.10;1.00;;;;;;5153368;27;20462;-68
2021/12/05 04:46:40;;;;;;;0.50;0.10;;;5.10;1.00;;;;;;5153357;27;20443;-68
2021/12/05 04:49:08;;;;;;;0.50;0.10;;;5.10;1.00;;;;;;5153120;27;20447;-68
2021/12/05 04:51:39;;;;;;;0.50;0.10;;;5.20;1.00;;;;;;5153053;27;20460;-69
2021/12/05 04:54:10;;;;;;;0.50;0.10;;;5.20;1.00;;;;;;5153510;27;20465;-69
2021/12/05 04:56:40;;;;;;;0.50;0.10;;;5.20;1.00;;;;;;5153174;27;20438;-69
2021/12/05 04:59:13;;;;;;;0.50;0.10;;;5.20;1.00;;;;;;5154717;27;20803;-67
2021/12/05 05:01:42;;;;;;;0.50;0.10;;;5.30;1.00;;;;;;5156515;27;20485;-69
2021/12/05 05:04:19;;;;;;;0.50;0.10;;;5.20;1.00;;;;;;5156629;27;20984;-68
2021/12/05 05:06:48;;;;;;;0.50;0.10;;;5.20;1.00;;;;;;5148687;27;20439;-68
2021/12/05 05:09:16;;;;;;;0.50;0.10;;;5.20;1.00;;;;;;5136851;27;20534;-68
2021/12/05 05:11:44;;;;;;;0.50;0.10;;;5.30;1.00;;;;;;5136554;27;20469;-69
2021/12/05 05:14:13;;;;;;;0.50;0.10;;;5.30;1.00;;;;;;5138384;27;20458;-68
2021/12/05 05:16:41;;;;;;;0.50;0.10;;;5.30;1.00;;;;;;5156820;27;20449;-68
2021/12/05 05:19:11;;;;;;;0.50;0.10;;;5.40;1.00;;;;;;5148334;27;20841;-68
2021/12/05 05:21:41;;;;;;;0.50;0.10;;;5.40;1.00;;;;;;5157180;27;20474;-68
2021/12/05 05:24:31;;;;;;;0.50;0.10;;;5.40;1.00;;;;;;5157356;27;20539;-68
2021/12/05 05:30:22;;;;;;;0.50;0.10;;;5.50;1.00;;;;;;5157555;27;20439;-67
2021/12/05 05:46:51;;;;;;;0.50;0.10;;;5.40;1.00;;;;;;5156990;27;20521;-69
2021/12/05 05:49:22;;;;;;;0.50;0.10;;;5.40;1.00;;;;;;5156348;27;20439;-68
2021/12/05 05:51:50;;;;;;;0.50;0.10;;;5.30;1.00;;;;;;5156932;27;20467;-69
2021/12/05 05:54:19;;;;;;;0.50;0.10;;;;;;;;;;5156557;27;20466;-68
2021/12/05 05:56:54;;;;;;;0.50;0.10;;;5.20;1.00;;;;;;5156972;27;20450;-68
2021/12/05 05:59:25;;;;;;;0.50;0.20;;;5.20;1.00;;;;;;5156381;27;20442;-68
2021/12/05 06:04:38;;;;;;;0.50;0.10;;;5.20;1.00;;;;;;5114204;27;20452;-69
2021/12/05 06:07:08;;;;;;;0.50;0.10;;;5.20;1.00;;;;;;5156626;27;20432;-69
2021/12/05 06:09:35;;;;;;;0.50;0.10;;;5.20;1.00;;;;;;5155746;27;20962;-68
2021/12/05 06:12:06;;;;;;;0.50;0.10;;;5.30;1.00;;;;;;5156330;27;20435;-68
2021/12/05 06:14:34;;;;;;;0.60;0.40;;;5.20;1.00;;;;;;5156058;27;20539;-70
2021/12/05 06:17:01;;;;;;;0.50;0.10;;;5.20;1.00;;;;;;5156029;27;20434;-68
2021/12/05 06:19:30;;;;;;;0.50;0.10;;;5.20;1.00;;;;;;5156224;27;20431;-68
2021/12/05 06:21:58;;;;;;;0.50;0.10;;;5.10;1.00;;;;;;5156456;27;20873;-68
2021/12/05 06:24:26;;;;;;;0.50;0.10;;;5.20;1.00;;;;;;5156074;27;20467;-68
2021/12/05 06:26:55;;;;;;;0.50;0.10;;;5.10;1.00;;;;;;5156286;27;20461;-68
2021/12/05 06:29:26;;;;;;;0.50;0.10;;;5.10;1.00;;;;;;5155533;27;20532;-68
2021/12/05 06:32:16;;;;;;;0.50;0.10;;;5.20;1.00;;;;;;5156207;27;20430;-69
2021/12/05 06:37:49;;;;;;;0.50;0.10;;;5.30;1.00;;;;;;5106855;27;20534;-68
2021/12/05 06:40:36;;;;;;;0.50;0.10;;;5.30;1.00;;;;;;5155388;27;20490;-68
2021/12/05 06:43:16;;;;;;;0.50;0.10;;;5.40;1.00;;;;;;5155833;27;20435;-69
2021/12/05 06:46:01;;;;;;;0.50;0.10;;;5.40;1.00;;;;;;5155462;27;20437;-68
2021/12/05 06:48:30;;;;;;;0.50;0.10;;;;;;;;;;5155585;27;20434;-68
2021/12/05 06:50:59;;;;;;;0.50;0.10;;;5.50;1.00;;;;;;5155135;27;20435;-68
2021/12/05 06:53:27;;;;;;;0.60;0.10;;;5.60;1.00;;;;;;5155551;27;20542;-67
2021/12/05 06:55:55;;;;;;;0.50;0.10;;;5.50;1.00;;;;;;5155571;27;20439;-69
2021/12/05 06:58:23;;;;;;;0.50;0.10;;;5.60;1.00;;;;;;5155549;27;20435;-68
2021/12/05 07:00:53;;;;;;;0.50;0.10;;;5.60;1.00;;;;;;5154876;27;20801;-69
2021/12/05 07:03:21;;;;;;;0.50;0.10;;;5.60;1.00;;;;;;5155559;27;20467;-68
2021/12/05 07:05:56;;;;;;;0.50;0.10;;;5.60;1.00;;;;;;5155699;27;20435;-68
2021/12/05 07:08:28;;;;;;;0.50;0.20;;;5.60;1.00;;;;;;5160490;27;20442;-69
2021/12/05 07:11:01;;;;;;;0.50;0.10;;;5.60;1.00;;;;;;5155575;27;20494;-68
2021/12/05 07:14:10;;;;;;;0.50;0.10;;;5.60;1.00;;;;;;5155086;27;20558;-67
2021/12/05 07:16:42;;;;;;;0.50;0.10;;;5.60;1.00;;;;;;5154712;27;20527;-68
2021/12/05 07:21:57;;;;;;;0.50;0.10;;;5.50;1.00;;;;;;5145417;27;20470;-68
2021/12/05 07:24:37;;;;;;;0.50;0.10;;;5.60;1.00;;;;;;5155547;27;20459;-68
2021/12/05 07:41:04;;;;;;;0.50;0.10;;;;;;;;;;5154653;27;20466;-69
2021/12/05 07:43:32;;;;;;;0.50;0.10;;;5.50;1.00;;;;;;5154752;27;20449;-68
2021/12/05 07:46:06;;;;;;;0.50;0.10;;;5.60;1.00;;;;;;5154648;27;20535;-67
2021/12/05 07:48:39;;;;;;;0.50;0.10;;;5.60;1.00;;;;;;5154561;27;20444;-69
2021/12/05 07:51:12;;;;;;;0.50;0.10;;;5.60;1.00;;;;;;5154308;27;20463;-70
2021/12/05 07:53:49;;;;;;;0.50;0.10;;;5.60;1.00;;;;;;5154386;27;20495;-69
2021/12/05 07:56:23;;;;;;;0.50;0.10;;;5.60;1.00;;;;;;5155020;27;20430;-69
2021/12/05 07:59:07;;;;;;;0.50;0.10;;;5.60;1.00;;;;;;5154447;27;20956;-69
2021/12/05 08:15:40;;;;;;;0.50;0.10;;;;;;;;;;5154172;27;20436;-69
2021/12/05 08:18:08;;;;;;;0.50;0.10;;;5.80;1.00;;;;;;5154498;27;20422;-69
2021/12/05 08:20:40;;;;;;;0.50;0.10;;;5.80;1.00;;;;;;5154457;27;20444;-69
2021/12/05 08:23:10;;;;;;;0.50;0.10;;;5.90;1.00;;;;;;5154449;27;20494;-69
2021/12/05 08:25:40;;;;;;;0.50;0.10;;;5.90;1.00;;;;;;5154487;27;20539;-69
2021/12/05 08:28:22;;;;;;;0.50;0.10;;;5.90;1.00;;;;;;5154019;27;20441;-68
2021/12/05 08:31:01;;;;;;;0.50;0.10;;;6.00;1.00;;;;;;5154055;27;20443;-68
2021/12/05 08:33:51;;;;;;;0.50;0.10;;;6.00;1.00;;;;;;5154100;27;20468;-69
2021/12/05 08:45:23;;;;;;;0.50;0.10;;;5.90;1.00;;;;;;5017657;28;20475;-66
2021/12/05 09:21:33;;;;;;;0.50;0.10;;;5.90;1.00;;;;;;5050848;28;20463;-67
2021/12/05 09:27:27;;;;;;;0.50;0.10;;;6.00;1.00;;;;;;5051395;28;20940;-66
2021/12/05 09:30:24;;;;;;;0.50;0.20;;;6.00;1.00;;;;;;5050839;28;20491;-66
2021/12/05 09:38:58;;;;;;;0.50;0.10;;;6.20;1.00;;;;;;5051131;28;20440;-66
2021/12/05 10:02:08;;;;;;;0.50;0.10;;;6.50;1.00;;;;;;5053481;28;20447;-66
2021/12/05 10:07:51;;;;;;;0.50;0.10;;;6.70;1.00;;;;;;5018278;28;20456;-66
2021/12/05 10:10:30;;;;;;;0.50;0.10;;;6.80;1.00;;;;;;5053964;28;20441;-66
2021/12/05 10:13:08;;;;;;;0.50;0.10;;;6.90;1.00;;;;;;5053956;28;20435;-66
2021/12/05 10:15:50;;;;;;;0.60;0.50;;;6.90;1.00;;;;;;5053971;28;20456;-66
2021/12/05 10:18:54;;;;;;;0.80;0.47;;;6.80;1.00;;;;;;5053775;28;20444;-66
2021/12/05 10:36:01;;;;;;;0.50;0.10;;;7.00;1.00;;;;;;5053379;28;20489;-66
2021/12/05 10:38:37;;;;;;;0.50;0.10;;;6.90;1.00;;;;;;5053668;28;20441;-65
2021/12/05 10:41:20;;;;;;;0.50;0.20;;;6.90;1.00;;;;;;5053228;28;20528;-66
2021/12/05 10:43:50;;;;;;;0.60;0.20;;;6.80;1.00;;;;;;5053037;28;20484;-65
2021/12/05 10:46:21;;;;;;;0.50;0.10;;;6.90;1.00;;;;;;5053690;28;20823;-65
2021/12/05 10:48:51;;;;;;;0.70;0.57;;;6.90;1.00;;;;;;5053172;28;20506;-66
2021/12/05 10:51:24;;;;;;;0.60;0.20;;;6.90;1.00;;;;;;5053320;28;20448;-66
2021/12/05 10:53:55;;;;;;;0.50;0.10;;;6.90;1.00;;;;;;5053472;28;20433;-66
2021/12/05 10:56:25;;;;;;;0.50;0.10;;;7.00;1.00;;;;;;5052875;28;20464;-67
2021/12/05 10:58:56;;;;;;;0.50;0.10;;;7.10;1.00;;;;;;5053449;28;20469;-66
2021/12/05 11:01:28;;;;;;;0.50;0.10;;;7.20;1.00;;;;;;5053144;28;20449;-66
2021/12/05 11:03:59;;;;;;;0.50;0.10;;;7.30;1.00;;;;;;5053100;28;20975;-66
2021/12/05 11:06:51;;;;;;;0.50;0.10;;;7.30;1.00;;;;;;5053050;28;20465;-66
2021/12/05 11:09:22;;;;;;;0.50;0.10;;;7.20;1.00;;;;;;5052792;28;20491;-67
2021/12/05 11:11:53;;;;;;;2.30;0.87;;;7.20;1.00;;;;;;5052854;28;20480;-66
2021/12/05 11:14:25;;;;;;;1.77;1.13;;;7.30;1.00;;;;;;5052756;28;20524;-66
2021/12/05 11:16:56;;;;;;;0.50;0.10;;;7.30;1.00;;;;;;5052646;28;20449;-66
2021/12/05 11:19:28;;;;;;;0.70;0.33;;;7.30;1.00;;;;;;5053041;28;20505;-66
2021/12/05 11:22:05;;;;;;;0.50;0.10;;;7.40;1.00;;;;;;5053146;28;20461;-68
2021/12/05 11:24:35;;;;;;;0.50;0.10;;;7.60;1.00;;;;;;5052599;28;20475;-67
2021/12/05 11:27:33;;;;;;;0.60;0.57;;;7.60;1.00;;;;;;5052442;28;20867;-66
2021/12/05 11:30:10;;;;;;;0.50;0.10;;;7.70;1.00;;;;;;5052695;28;20528;-66
2021/12/05 11:32:42;;;;;;;0.50;0.17;;;7.70;1.00;;;;;;5052688;28;20476;-65
2021/12/05 11:35:35;;;;;;;0.50;0.10;;;7.80;1.00;;;;;;5052316;28;20990;-66
2021/12/05 11:38:10;;;;;;;0.50;0.10;;;7.80;1.00;;;;;;5049586;28;20486;-65
2021/12/05 11:40:58;;;;;;;0.50;0.10;;;7.80;1.00;;;;;;5052427;28;20897;-66
2021/12/05 11:43:29;;;;;;;0.50;0.10;;;9.70;1.00;;;;;;5052471;28;20488;-66
2021/12/05 11:46:01;;;;;;;0.50;0.30;;;7.60;1.00;;;;;;5052144;28;20472;-66
2021/12/05 11:48:36;;;;;;;0.60;0.30;;;7.50;1.00;;;;;;5052237;28;20461;-66
2021/12/05 11:51:23;;;;;;;0.50;0.20;;;7.40;1.00;;;;;;5052117;28;20449;-66
2021/12/05 11:53:55;;;;;;;0.50;0.10;;;7.30;1.00;;;;;;5052366;28;20443;-67
2021/12/05 11:56:39;;;;;;;0.50;0.10;;;7.30;1.00;;;;;;5051759;28;20987;-67
2021/12/05 11:59:13;;;;;;;0.50;0.10;;;7.30;1.00;;;;;;5052433;28;20445;-65
2021/12/05 12:01:45;;;;;;;0.50;0.10;;;7.40;1.00;;;;;;5052231;28;20445;-66
2021/12/05 12:04:15;;;;;;;0.50;0.10;;;7.40;1.00;;;;;;5052174;28;20480;-67
2021/12/05 12:06:45;;;;;;;0.50;0.10;;;7.40;1.00;;;;;;5052494;28;20445;-69
2021/12/05 12:09:15;;;;;;;0.50;0.10;;;7.40;1.00;;;;;;5051490;28;20527;-66
2021/12/05 12:11:43;;;;;;;0.50;0.10;;;7.30;1.00;;;;;;5052085;28;20548;-65
2021/12/05 12:14:11;;;;;;;0.97;0.40;;;7.30;1.00;;;;;;5052500;28;20444;-66
2021/12/05 12:16:39;;;;;;;0.50;0.10;;;7.30;1.00;;;;;;5052308;28;20476;-67
2021/12/05 12:19:07;;;;;;;0.50;0.10;;;;;;;;;;5051542;28;20470;-64
2021/12/05 12:21:41;;;;;;;0.50;0.10;;;7.50;1.00;;;;;;5052005;28;20455;-66
2021/12/05 12:24:10;;;;;;;0.97;0.80;;;7.60;1.00;;;;;;5052059;28;20489;-68
2021/12/05 12:26:39;;;;;;;0.50;0.10;;;7.70;1.00;;;;;;5052439;28;20460;-65
2021/12/05 12:29:11;;;;;;;0.50;0.10;;;7.70;1.00;;;;;;5051647;28;20442;-65
2021/12/05 12:31:41;;;;;;;0.50;0.10;;;7.70;1.00;;;;;;5052083;28;20680;-66
2021/12/05 12:34:12;;;;;;;0.50;0.10;;;7.90;1.00;;;;;;5051914;28;20449;-67
2021/12/05 12:36:43;;;;;;;0.60;0.10;;;8.00;1.00;;;;;;5053043;28;20472;-65
2021/12/05 12:39:31;;;;;;;0.50;0.10;;;7.90;1.00;;;;;;5052272;28;20445;-66
2021/12/05 12:42:13;;;;;;;0.50;0.10;;;8.00;1.00;;;;;;5052241;28;20440;-67
2021/12/05 12:45:02;;;;;;;0.50;0.10;;;8.10;1.00;;;;;;5051663;28;20509;-66
2021/12/05 12:47:32;;;;;;;0.50;0.10;;;8.10;1.00;;;;;;5051966;28;20523;-65
2021/12/05 12:50:39;;;;;;;0.50;0.10;;;8.10;1.00;;;;;;5051512;28;20454;-65
2021/12/05 12:53:14;;;;;;;0.50;0.10;;;8.10;1.00;;;;;;5031758;28;20820;-66
2021/12/05 12:55:49;;;;;;;2.93;1.13;;;8.10;1.00;;;;;;5052195;28;20454;-65
2021/12/05 12:58:40;;;;;;;0.50;0.10;;;8.10;1.00;;;;;;5051936;28;20467;-66
2021/12/05 13:01:18;;;;;;;0.50;0.10;;;8.10;1.00;;;;;;5051677;28;20440;-66
2021/12/05 13:04:29;;;;;;;0.50;0.10;;;8.10;1.00;;;;;;5051667;28;20440;-65
2021/12/05 13:12:35;;;;;;;0.50;0.10;;;8.20;1.00;;;;;;5051817;28;20446;-66
2021/12/05 13:15:10;;;;;;;0.60;0.50;;;8.30;1.00;;;;;;5051307;28;20544;-64
2021/12/05 13:17:40;;;;;;;0.53;0.10;;;8.30;1.00;;;;;;5052057;28;20437;-64
2021/12/05 13:20:10;;;;;;;0.50;0.10;;;8.30;1.00;;;;;;5053124;28;20455;-66
2021/12/05 13:22:59;;;;;;;0.50;0.10;;;8.40;1.00;;;;;;5055980;28;20952;-65
2021/12/05 13:25:28;;;;;;;0.60;0.10;;;8.40;1.00;;;;;;5055303;28;20999;-66
2021/12/05 13:27:57;;;;;;;0.60;0.17;;;8.40;1.00;;;;;;5055067;28;20830;-65
2021/12/05 13:30:35;;;;;;;0.60;0.10;;;8.30;1.00;;;;;;5054547;28;20448;-66
2021/12/05 13:33:16;;;;;;;0.60;0.10;;;8.30;1.00;;;;;;5054993;28;20480;-66
2021/12/05 13:35:45;;;;;;;0.60;0.10;;;8.40;1.00;;;;;;5054882;28;20473;-66
2021/12/05 13:38:32;;;;;;;0.60;0.10;;;8.40;1.00;;;;;;5054991;28;20548;-64
2021/12/05 13:41:11;;;;;;;0.60;0.10;;;8.50;1.00;;;;;;5055269;28;20464;-64
2021/12/05 13:43:40;;;;;;;0.60;0.10;;;8.50;1.00;;;;;;5055047;28;20468;-66
2021/12/05 13:46:35;;;;;;;0.50;0.10;;;8.50;1.00;;;;;;5054306;28;20898;-66
2021/12/05 13:49:31;;;;;;;0.50;0.20;;;8.50;1.00;;;;;;5054315;28;20447;-65
2021/12/05 13:52:29;;;;;;;0.50;0.10;;;8.50;1.00;;;;;;5054849;28;20790;-65
2021/12/05 13:55:30;;;;;;;0.50;0.10;;;8.40;1.00;;;;;;5054533;28;20827;-65
2021/12/05 13:58:19;;;;;;;0.50;0.10;;;8.30;1.00;;;;;;5054552;28;20448;-66
2021/12/05 14:00:51;;;;;;;0.50;0.10;;;8.30;1.00;;;;;;5054287;28;20441;-65
2021/12/05 14:03:56;;;;;;;0.50;0.10;;;8.20;1.00;;;;;;5054510;28;20540;-66
2021/12/05 14:06:32;;;;;;;0.50;0.10;;;8.10;1.00;;;;;;5054482;28;20461;-66
2021/12/05 14:09:07;;;;;;;0.50;0.10;;;8.00;1.00;;;;;;5054218;28;20445;-64
2021/12/05 14:11:37;;;;;;;0.50;0.10;;;8.00;1.00;;;;;;5054481;28;20469;-65
2021/12/05 14:14:07;;;;;;;0.50;0.10;;;8.00;1.00;;;;;;5054326;28;20437;-66
2021/12/05 14:16:38;;;;;;;0.50;0.10;;;7.90;1.00;;;;;;5054790;28;21012;-65
2021/12/05 14:19:07;;;;;;;0.50;0.10;;;7.80;1.00;;;;;;5054925;28;20433;-66
2021/12/05 14:21:41;;;;;;;0.53;0.10;;;7.80;1.00;;;;;;5053955;28;20452;-66
2021/12/05 14:24:10;;;;;;;0.50;0.10;;;7.70;1.00;;;;;;5054218;28;20444;-65
2021/12/05 14:26:40;;;;;;;0.50;0.10;;;7.70;1.00;;;;;;5053825;28;20491;-66
2021/12/05 14:29:10;;;;;;;0.50;0.10;;;7.70;1.00;;;;;;5054163;28;20966;-66
2021/12/05 14:31:41;;;;;;;0.50;0.10;;;7.70;1.00;;;;;;5053816;28;20446;-66
2021/12/05 14:34:10;;;;;;;0.50;0.10;;;7.70;1.00;;;;;;5053757;28;20444;-67
2021/12/05 14:36:42;;;;;;;0.50;0.10;;;7.70;1.00;;;;;;5090868;22;20491;-69
2021/12/05 14:39:22;;;;;;;0.50;0.10;;;7.70;1.00;;;;;;5073156;28;20979;-68
2021/12/05 14:41:52;;;;;;;0.50;0.10;;;7.80;1.00;;;;;;5073763;28;20436;-70
2021/12/05 14:44:21;;;;;;;0.50;0.10;;;7.70;1.00;;;;;;5073551;28;20463;-69
2021/12/05 14:46:52;;;;;;;0.50;0.10;;;7.70;1.00;;;;;;5073466;28;21023;-70
2021/12/05 14:49:22;;;;;;;0.50;0.10;;;7.70;1.00;;;;;;5073622;28;20449;-70
2021/12/05 14:51:52;;;;;;;0.50;0.10;;;7.70;1.00;;;;;;5073391;28;20443;-69
2021/12/05 14:54:25;;;;;;;0.50;0.10;;;7.70;1.00;;;;;;5073633;28;20814;-69
2021/12/05 14:56:54;;;;;;;0.50;0.10;;;7.70;1.00;;;;;;5073373;28;20903;-69
2021/12/05 14:59:22;;;;;;;0.50;0.10;;;7.70;1.00;;;;;;5073563;28;20452;-69
2021/12/05 15:01:53;;;;;;;0.50;0.10;;;7.70;1.00;;;;;;5073456;28;20478;-69
2021/12/05 15:04:30;;;;;;;0.50;0.10;;;7.60;1.00;;;;;;5073268;28;20523;-69
2021/12/05 15:07:03;;;;;;;0.50;0.10;;;7.60;1.00;;;;;;5073162;28;20484;-69
2021/12/05 15:09:34;;;;;;;0.50;0.10;;;7.60;1.00;;;;;;5073290;28;20466;-70
2021/12/05 15:12:06;;;;;;;0.50;0.10;;;7.50;1.00;;;;;;5073089;28;20792;-73
2021/12/05 15:14:36;;;;;;;0.50;0.10;;;7.50;1.00;;;;;;5073261;28;20503;-69
2021/12/05 15:17:08;;;;;;;0.50;0.10;;;7.50;1.00;;;;;;5073288;28;20945;-69
2021/12/05 15:19:40;;;;;;;0.50;0.10;;;7.50;1.00;;;;;;5073281;28;20467;-69
2021/12/05 15:22:30;;;;;;;0.50;0.10;;;7.50;1.00;;;;;;5073236;28;20861;-70
2021/12/05 15:25:01;;;;;;;0.50;0.20;;;8.80;1.00;;;;;;5073209;28;20493;-69
2021/12/05 15:27:31;;;;;;;0.50;0.10;;;7.50;1.00;;;;;;5073346;28;20520;-68
2021/12/05 15:30:03;;;;;;;0.50;0.10;;;7.50;1.00;;;;;;5072762;28;20482;-69
2021/12/05 15:32:33;;;;;;;1.50;1.40;;;7.50;1.00;;;;;;5072564;28;20455;-69
2021/12/05 15:35:04;;;;;;;0.50;0.10;;;7.50;1.00;;;;;;5071922;28;20529;-69
2021/12/05 15:37:34;;;;;;;0.50;0.10;;;7.50;1.00;;;;;;5072633;28;20449;-70
2021/12/05 15:40:05;;;;;;;0.50;0.10;;;7.40;1.00;;;;;;5072102;28;21060;-70
2021/12/05 15:42:34;;;;;;;0.50;0.10;;;7.40;1.00;;;;;;5071721;28;20799;-69
2021/12/05 15:45:09;;;;;;;0.50;0.10;;;7.40;1.00;;;;;;5072047;28;20456;-70
2021/12/05 15:47:38;;;;;;;0.50;0.10;;;7.40;1.00;;;;;;5072814;28;20445;-69
2021/12/05 15:50:09;;;;;;;0.50;0.10;;;7.50;1.00;;;;;;5072281;28;20870;-69
2021/12/05 15:52:45;;;;;;;0.50;0.10;;;7.50;1.00;;;;;;5072404;28;21042;-70
2021/12/05 15:55:16;;;;;;;0.50;0.10;;;7.50;1.00;;;;;;5073037;28;20602;-69
2021/12/05 15:57:47;;;;;;;0.50;0.10;;;5.90;1.00;;;;;;5073225;28;20444;-70
2021/12/05 16:00:23;;;;;;;0.50;0.10;;;7.50;1.00;;;;;;5072048;28;20946;-70
2021/12/05 16:02:58;;;;;;;0.50;0.10;;;7.50;1.00;;;;;;5070426;28;20440;-69
2021/12/05 16:05:26;;;;;;;0.50;0.10;;;7.40;1.00;;;;;;5071796;28;20473;-69
2021/12/05 16:08:02;;;;;;;0.50;0.10;;;7.40;1.00;;;;;;5071982;28;20477;-69
2021/12/05 16:10:32;;;;;;;0.50;0.10;;;7.40;1.00;;;;;;5071752;28;20440;-69
2021/12/05 16:13:09;;;;;;;0.50;0.10;;;7.30;1.00;;;;;;5071676;28;20466;-69
2021/12/05 16:15:37;;;;;;;0.50;0.10;;;7.30;1.00;;;;;;5071779;28;20463;-69
2021/12/05 16:18:05;;;;;;;0.50;0.10;;;7.30;1.00;;;;;;5072112;28;20452;-69
2021/12/05 16:20:40;;;;;;;1.63;1.53;;;7.30;1.00;;;;;;5072663;28;20443;-69
2021/12/05 16:23:16;;;;;;;0.50;0.10;;;7.20;1.00;;;;;;5072315;28;20440;-68
2021/12/05 16:25:57;;;;;;;0.50;0.10;;;7.10;1.00;;;;;;5072017;28;20490;-69
2021/12/05 16:28:28;;;;;;;0.50;0.10;;;7.10;1.00;;;;;;5072268;28;20979;-70
2021/12/05 16:31:01;;;;;;;0.50;0.10;;;7.00;1.00;;;;;;5072365;28;20459;-70
2021/12/05 16:33:31;;;;;;;1.53;1.43;;;7.00;1.00;;;;;;5072689;28;20535;-70
2021/12/05 16:36:00;;;;;;;0.50;0.10;;;7.00;1.00;;;;;;5072412;28;20479;-70
2021/12/05 16:38:35;;;;;;;0.50;0.23;;;7.00;1.00;;;;;;5072770;28;20451;-69
2021/12/05 16:41:09;;;;;;;0.50;0.10;;;7.00;1.00;;;;;;5072752;28;20529;-69
2021/12/05 16:43:39;;;;;;;0.50;0.20;;;7.10;1.00;;;;;;5072874;28;20542;-69
2021/12/05 16:46:11;;;;;;;0.50;0.10;;;7.00;1.00;;;;;;5072417;28;20512;-70
2021/12/05 16:48:42;;;;;;;0.50;0.10;;;7.00;1.00;;;;;;5053080;28;20468;-69
2021/12/05 16:51:17;;;;;;;0.50;0.10;;;7.00;1.00;;;;;;5052775;28;20441;-69
2021/12/05 16:53:49;;;;;;;0.50;0.20;;;7.00;1.00;;;;;;5053290;28;20459;-69
2021/12/05 16:56:40;;;;;;;0.50;0.10;;;6.90;1.00;;;;;;5055857;28;20456;-69
2021/12/05 16:59:12;;;;;;;0.50;0.10;;;6.90;1.00;;;;;;5056389;28;20551;-69
2021/12/05 17:01:44;;;;;;;0.50;0.10;;;6.90;1.00;;;;;;5056099;28;20440;-69
2021/12/05 17:04:13;;;;;;;0.50;0.10;;;6.80;1.00;;;;;;5055902;28;20492;-70
2021/12/05 17:06:51;;;;;;;0.50;0.10;;;6.80;1.00;;;;;;5056147;28;20483;-70
2021/12/05 17:09:21;;;;;;;0.50;0.10;;;6.80;1.00;;;;;;5055420;28;21024;-70
2021/12/05 17:11:49;;;;;;;0.50;0.10;;;6.80;1.00;;;;;;5055786;28;20440;-70
2021/12/05 17:14:26;;;;;;;0.50;0.10;;;6.80;1.00;;;;;;5056119;28;20475;-69
2021/12/05 17:16:55;;;;;;;0.50;0.10;;;6.80;1.00;;;;;;5055925;28;20464;-69
2021/12/05 17:19:30;;;;;;;0.50;0.10;;;6.70;1.00;;;;;;5055969;28;20446;-69
2021/12/05 17:21:58;;;;;;;0.50;0.10;;;6.80;1.00;;;;;;5056042;28;20451;-69
2021/12/05 17:24:31;;;;;;;0.50;0.10;;;6.70;1.00;;;;;;5056427;28;20526;-70
2021/12/05 17:27:03;;;;;;;0.50;0.30;;;6.70;1.00;;;;;;5056163;28;20489;-69
2021/12/05 17:29:36;;;;;;;0.50;0.10;;;6.70;1.00;;;;;;5056404;28;20469;-69
2021/12/05 17:32:08;;;;;;;0.50;0.10;;;6.70;1.00;;;;;;5055998;28;20468;-69
2021/12/05 17:34:38;;;;;;;0.50;0.10;;;6.70;1.00;;;;;;5056143;28;20856;-69
2021/12/05 17:37:08;;;;;;;0.50;0.10;;;6.70;1.00;;;;;;5055451;28;20549;-69